sensor_id;sensor_type;location;lat;lon;timestamp;P1;durP1;ratioP1;P2;durP2;ratioP2
12878;SDS011;20617;49.476;10.986;2023-05-10T00:01:09;5.93;;;4.78;;
12878;SDS011;20617;49.476;10.986;2023-05-10T00:03:15;5.78;;;5.18;;
12878;SDS011;20617;49.476;10.986;2023-05-10T00:07:25;4.55;;;4.15;;
12878;SDS011;20617;49.476;10.986;2023-05-10T00:09:30;5.78;;;4.70;;
12878;SDS011;20617;49.476;10.986;2023-05-10T00:11:35;5.85;;;5.22;;
12878;SDS011;20617;49.476;10.986;2023-05-10T00:13:42;5.97;;;4.97;;
12878;SDS011;20617;49.476;10.986;2023-05-10T00:15:50;5.57;;;4.93;;
12878;SDS011;20617;49.476;10.986;2023-05-10T00:17:55;5.30;;;4.60;;
12878;SDS011;20617;49.476;10.986;2023-05-10T00:20:00;6.63;;;5.40;;
12878;SDS011;20617;49.476;10.986;2023-05-10T00:22:06;6.40;;;4.93;;
12878;SDS011;20617;49.476;10.986;2023-05-10T00:24:12;6.80;;;6.00;;
12878;SDS011;20617;49.476;10.986;2023-05-10T00:26:17;7.43;;;5.32;;
12878;SDS011;20617;49.476;10.986;2023-05-10T00:28:26;5.70;;;5.20;;
12878;SDS011;20617;49.476;10.986;2023-05-10T00:30:31;5.88;;;4.72;;
12878;SDS011;20617;49.476;10.986;2023-05-10T00:32:39;6.00;;;5.40;;
12878;SDS011;20617;49.476;10.986;2023-05-10T00:34:45;5.32;;;4.57;;
12878;SDS011;20617;49.476;10.986;2023-05-10T00:36:50;5.15;;;4.65;;
12878;SDS011;20617;49.476;10.986;2023-05-10T00:38:55;5.80;;;5.03;;
12878;SDS011;20617;49.476;10.986;2023-05-10T00:40:59;6.72;;;5.03;;
12878;SDS011;20617;49.476;10.986;2023-05-10T00:43:08;6.05;;;5.00;;
12878;SDS011;20617;49.476;10.986;2023-05-10T00:45:13;5.35;;;4.82;;
12878;SDS011;20617;49.476;10.986;2023-05-10T00:49:26;5.30;;;4.80;;
12878;SDS011;20617;49.476;10.986;2023-05-10T00:51:31;6.10;;;5.50;;
12878;SDS011;20617;49.476;10.986;2023-05-10T00:53:36;6.03;;;5.35;;
12878;SDS011;20617;49.476;10.986;2023-05-10T00:55:41;6.75;;;5.25;;
12878;SDS011;20617;49.476;10.986;2023-05-10T00:57:47;5.15;;;4.65;;
12878;SDS011;20617;49.476;10.986;2023-05-10T00:59:53;6.38;;;5.10;;
12878;SDS011;20617;49.476;10.986;2023-05-10T01:01:58;6.25;;;5.05;;
12878;SDS011;20617;49.476;10.986;2023-05-10T01:04:04;5.93;;;5.32;;
12878;SDS011;20617;49.476;10.986;2023-05-10T01:08:16;6.15;;;5.55;;
12878;SDS011;20617;49.476;10.986;2023-05-10T01:10:22;5.60;;;5.03;;
12878;SDS011;20617;49.476;10.986;2023-05-10T01:14:32;5.97;;;5.32;;
12878;SDS011;20617;49.476;10.986;2023-05-10T01:16:40;5.68;;;5.10;;
12878;SDS011;20617;49.476;10.986;2023-05-10T01:18:46;5.70;;;5.20;;
12878;SDS011;20617;49.476;10.986;2023-05-10T01:20:54;5.82;;;5.28;;
12878;SDS011;20617;49.476;10.986;2023-05-10T01:23:16;5.53;;;4.95;;
12878;SDS011;20617;49.476;10.986;2023-05-10T01:27:56;5.43;;;4.93;;
12878;SDS011;20617;49.476;10.986;2023-05-10T01:30:27;6.25;;;5.32;;
12878;SDS011;20617;49.476;10.986;2023-05-10T01:32:57;6.13;;;5.38;;
12878;SDS011;20617;49.476;10.986;2023-05-10T01:35:06;5.45;;;4.80;;
12878;SDS011;20617;49.476;10.986;2023-05-10T01:37:21;6.65;;;5.20;;
12878;SDS011;20617;49.476;10.986;2023-05-10T01:39:36;6.38;;;5.25;;
12878;SDS011;20617;49.476;10.986;2023-05-10T01:41:49;6.07;;;5.47;;
12878;SDS011;20617;49.476;10.986;2023-05-10T01:44:01;6.45;;;5.32;;
12878;SDS011;20617;49.476;10.986;2023-05-10T01:46:13;5.00;;;4.28;;
12878;SDS011;20617;49.476;10.986;2023-05-10T01:48:24;4.70;;;4.30;;
12878;SDS011;20617;49.476;10.986;2023-05-10T01:50:35;4.57;;;4.18;;
12878;SDS011;20617;49.476;10.986;2023-05-10T01:52:42;5.18;;;4.68;;
12878;SDS011;20617;49.476;10.986;2023-05-10T01:54:52;5.22;;;4.72;;
12878;SDS011;20617;49.476;10.986;2023-05-10T01:57:02;5.03;;;4.53;;
12878;SDS011;20617;49.476;10.986;2023-05-10T01:59:11;5.35;;;4.40;;
12878;SDS011;20617;49.476;10.986;2023-05-10T02:01:17;4.82;;;4.32;;
12878;SDS011;20617;49.476;10.986;2023-05-10T02:03:27;4.07;;;3.45;;
12878;SDS011;20617;49.476;10.986;2023-05-10T02:05:37;4.50;;;4.10;;
12878;SDS011;20617;49.476;10.986;2023-05-10T02:07:46;5.78;;;5.18;;
12878;SDS011;20617;49.476;10.986;2023-05-10T02:09:52;4.70;;;4.13;;
12878;SDS011;20617;49.476;10.986;2023-05-10T02:11:57;5.13;;;3.75;;
12878;SDS011;20617;49.476;10.986;2023-05-10T02:14:04;3.92;;;3.40;;
12878;SDS011;20617;49.476;10.986;2023-05-10T02:16:12;4.18;;;3.78;;
12878;SDS011;20617;49.476;10.986;2023-05-10T02:18:21;3.80;;;3.40;;
12878;SDS011;20617;49.476;10.986;2023-05-10T02:20:30;3.88;;;3.17;;
12878;SDS011;20617;49.476;10.986;2023-05-10T02:22:36;3.92;;;3.28;;
12878;SDS011;20617;49.476;10.986;2023-05-10T02:24:43;4.68;;;3.42;;
12878;SDS011;20617;49.476;10.986;2023-05-10T02:26:50;4.85;;;3.50;;
12878;SDS011;20617;49.476;10.986;2023-05-10T02:28:57;3.50;;;3.20;;
12878;SDS011;20617;49.476;10.986;2023-05-10T02:31:05;4.63;;;3.35;;
12878;SDS011;20617;49.476;10.986;2023-05-10T02:33:12;3.80;;;2.92;;
12878;SDS011;20617;49.476;10.986;2023-05-10T02:35:21;3.70;;;3.00;;
12878;SDS011;20617;49.476;10.986;2023-05-10T02:37:30;4.65;;;3.38;;
12878;SDS011;20617;49.476;10.986;2023-05-10T02:39:37;4.18;;;2.60;;
12878;SDS011;20617;49.476;10.986;2023-05-10T02:41:45;3.35;;;2.53;;
12878;SDS011;20617;49.476;10.986;2023-05-10T02:43:51;2.22;;;1.90;;
12878;SDS011;20617;49.476;10.986;2023-05-10T02:46:00;4.05;;;2.20;;
12878;SDS011;20617;49.476;10.986;2023-05-10T02:48:05;2.20;;;2.00;;
12878;SDS011;20617;49.476;10.986;2023-05-10T02:50:11;3.05;;;2.75;;
12878;SDS011;20617;49.476;10.986;2023-05-10T02:52:19;5.57;;;2.85;;
12878;SDS011;20617;49.476;10.986;2023-05-10T02:54:32;3.17;;;2.65;;
12878;SDS011;20617;49.476;10.986;2023-05-10T02:56:43;2.50;;;2.30;;
12878;SDS011;20617;49.476;10.986;2023-05-10T02:58:52;2.95;;;2.55;;
12878;SDS011;20617;49.476;10.986;2023-05-10T03:00:57;2.40;;;2.10;;
12878;SDS011;20617;49.476;10.986;2023-05-10T03:03:02;3.25;;;2.72;;
12878;SDS011;20617;49.476;10.986;2023-05-10T03:05:08;3.03;;;2.75;;
12878;SDS011;20617;49.476;10.986;2023-05-10T03:07:13;2.70;;;2.50;;
12878;SDS011;20617;49.476;10.986;2023-05-10T03:09:23;3.85;;;2.25;;
12878;SDS011;20617;49.476;10.986;2023-05-10T03:13:47;2.45;;;2.08;;
12878;SDS011;20617;49.476;10.986;2023-05-10T03:15:59;2.47;;;2.28;;
12878;SDS011;20617;49.476;10.986;2023-05-10T03:18:13;2.33;;;2.13;;
12878;SDS011;20617;49.476;10.986;2023-05-10T03:20:29;2.05;;;1.85;;
12878;SDS011;20617;49.476;10.986;2023-05-10T03:22:40;2.17;;;1.98;;
12878;SDS011;20617;49.476;10.986;2023-05-10T03:24:51;3.67;;;1.70;;
12878;SDS011;20617;49.476;10.986;2023-05-10T03:27:05;2.90;;;1.83;;
12878;SDS011;20617;49.476;10.986;2023-05-10T03:29:12;2.20;;;1.40;;
12878;SDS011;20617;49.476;10.986;2023-05-10T03:31:19;1.83;;;1.20;;
12878;SDS011;20617;49.476;10.986;2023-05-10T03:33:24;3.55;;;1.40;;
12878;SDS011;20617;49.476;10.986;2023-05-10T03:37:34;1.60;;;1.30;;
12878;SDS011;20617;49.476;10.986;2023-05-10T03:39:40;3.00;;;1.00;;
12878;SDS011;20617;49.476;10.986;2023-05-10T03:41:46;1.40;;;0.77;;
12878;SDS011;20617;49.476;10.986;2023-05-10T03:43:54;2.22;;;0.90;;
12878;SDS011;20617;49.476;10.986;2023-05-10T03:46:01;2.45;;;0.90;;
12878;SDS011;20617;49.476;10.986;2023-05-10T03:48:06;0.90;;;0.65;;
12878;SDS011;20617;49.476;10.986;2023-05-10T03:52:16;0.80;;;0.70;;
12878;SDS011;20617;49.476;10.986;2023-05-10T03:54:22;0.63;;;0.63;;
12878;SDS011;20617;49.476;10.986;2023-05-10T03:56:27;1.10;;;0.90;;
12878;SDS011;20617;49.476;10.986;2023-05-10T03:58:32;1.20;;;0.82;;
12878;SDS011;20617;49.476;10.986;2023-05-10T04:02:48;0.57;;;0.57;;
12878;SDS011;20617;49.476;10.986;2023-05-10T04:04:54;0.60;;;0.60;;
12878;SDS011;20617;49.476;10.986;2023-05-10T04:06:59;1.23;;;0.60;;
12878;SDS011;20617;49.476;10.986;2023-05-10T04:09:04;1.88;;;0.95;;
12878;SDS011;20617;49.476;10.986;2023-05-10T04:11:10;1.05;;;0.85;;
12878;SDS011;20617;49.476;10.986;2023-05-10T04:13:16;0.90;;;0.68;;
12878;SDS011;20617;49.476;10.986;2023-05-10T04:17:28;2.25;;;0.80;;
12878;SDS011;20617;49.476;10.986;2023-05-10T04:19:34;1.25;;;0.70;;
12878;SDS011;20617;49.476;10.986;2023-05-10T04:21:41;0.60;;;0.60;;
12878;SDS011;20617;49.476;10.986;2023-05-10T04:23:46;0.90;;;0.90;;
12878;SDS011;20617;49.476;10.986;2023-05-10T04:25:50;0.60;;;0.60;;
12878;SDS011;20617;49.476;10.986;2023-05-10T04:27:55;1.05;;;0.80;;
12878;SDS011;20617;49.476;10.986;2023-05-10T04:30:00;3.08;;;0.77;;
12878;SDS011;20617;49.476;10.986;2023-05-10T04:34:14;1.00;;;0.60;;
12878;SDS011;20617;49.476;10.986;2023-05-10T04:36:19;0.90;;;0.70;;
12878;SDS011;20617;49.476;10.986;2023-05-10T04:38:24;3.83;;;0.60;;
12878;SDS011;20617;49.476;10.986;2023-05-10T04:42:34;0.57;;;0.50;;
12878;SDS011;20617;49.476;10.986;2023-05-10T04:44:39;0.82;;;0.50;;
12878;SDS011;20617;49.476;10.986;2023-05-10T04:46:44;0.55;;;0.55;;
12878;SDS011;20617;49.476;10.986;2023-05-10T04:48:49;2.70;;;0.70;;
12878;SDS011;20617;49.476;10.986;2023-05-10T04:50:56;1.02;;;0.70;;
12878;SDS011;20617;49.476;10.986;2023-05-10T04:53:01;1.08;;;0.77;;
12878;SDS011;20617;49.476;10.986;2023-05-10T04:55:07;0.45;;;0.45;;
12878;SDS011;20617;49.476;10.986;2023-05-10T04:57:12;0.73;;;0.70;;
12878;SDS011;20617;49.476;10.986;2023-05-10T04:59:17;0.50;;;0.50;;
12878;SDS011;20617;49.476;10.986;2023-05-10T05:01:22;1.23;;;0.80;;
12878;SDS011;20617;49.476;10.986;2023-05-10T05:05:32;0.50;;;0.50;;
12878;SDS011;20617;49.476;10.986;2023-05-10T05:07:39;1.33;;;0.57;;
12878;SDS011;20617;49.476;10.986;2023-05-10T05:09:44;0.60;;;0.60;;
12878;SDS011;20617;49.476;10.986;2023-05-10T05:11:49;0.50;;;0.50;;
12878;SDS011;20617;49.476;10.986;2023-05-10T05:13:54;0.68;;;0.68;;
12878;SDS011;20617;49.476;10.986;2023-05-10T05:16:01;2.25;;;0.80;;
12878;SDS011;20617;49.476;10.986;2023-05-10T05:18:06;0.60;;;0.60;;
12878;SDS011;20617;49.476;10.986;2023-05-10T05:20:12;0.70;;;0.70;;
12878;SDS011;20617;49.476;10.986;2023-05-10T05:22:17;1.08;;;0.80;;
12878;SDS011;20617;49.476;10.986;2023-05-10T05:24:32;1.65;;;0.70;;
12878;SDS011;20617;49.476;10.986;2023-05-10T05:26:40;0.68;;;0.60;;
12878;SDS011;20617;49.476;10.986;2023-05-10T05:28:44;1.15;;;0.80;;
12878;SDS011;20617;49.476;10.986;2023-05-10T05:30:50;1.10;;;1.00;;
12878;SDS011;20617;49.476;10.986;2023-05-10T05:32:55;1.45;;;0.77;;
12878;SDS011;20617;49.476;10.986;2023-05-10T05:35:00;0.85;;;0.70;;
12878;SDS011;20617;49.476;10.986;2023-05-10T05:37:05;1.05;;;0.80;;
12878;SDS011;20617;49.476;10.986;2023-05-10T05:41:17;0.90;;;0.90;;
12878;SDS011;20617;49.476;10.986;2023-05-10T05:43:26;1.27;;;0.80;;
12878;SDS011;20617;49.476;10.986;2023-05-10T05:45:31;1.13;;;0.90;;
12878;SDS011;20617;49.476;10.986;2023-05-10T05:47:36;1.20;;;1.10;;
12878;SDS011;20617;49.476;10.986;2023-05-10T05:49:41;1.20;;;1.10;;
12878;SDS011;20617;49.476;10.986;2023-05-10T05:51:47;4.20;;;1.20;;
12878;SDS011;20617;49.476;10.986;2023-05-10T05:53:53;2.65;;;1.25;;
12878;SDS011;20617;49.476;10.986;2023-05-10T05:55:58;1.48;;;1.30;;
12878;SDS011;20617;49.476;10.986;2023-05-10T05:58:05;1.20;;;1.08;;
12878;SDS011;20617;49.476;10.986;2023-05-10T06:00:11;1.27;;;1.00;;
12878;SDS011;20617;49.476;10.986;2023-05-10T06:02:19;1.08;;;0.80;;
12878;SDS011;20617;49.476;10.986;2023-05-10T06:04:24;2.45;;;1.30;;
12878;SDS011;20617;49.476;10.986;2023-05-10T06:06:29;0.93;;;0.93;;
12878;SDS011;20617;49.476;10.986;2023-05-10T06:08:34;0.90;;;0.90;;
12878;SDS011;20617;49.476;10.986;2023-05-10T06:10:39;1.73;;;0.88;;
12878;SDS011;20617;49.476;10.986;2023-05-10T06:12:44;0.77;;;0.77;;
12878;SDS011;20617;49.476;10.986;2023-05-10T06:14:53;1.52;;;1.08;;
12878;SDS011;20617;49.476;10.986;2023-05-10T06:16:58;1.33;;;1.00;;
12878;SDS011;20617;49.476;10.986;2023-05-10T06:19:05;1.35;;;1.00;;
12878;SDS011;20617;49.476;10.986;2023-05-10T06:21:10;1.35;;;1.23;;
12878;SDS011;20617;49.476;10.986;2023-05-10T06:23:16;0.88;;;0.82;;
12878;SDS011;20617;49.476;10.986;2023-05-10T06:25:21;1.35;;;1.25;;
12878;SDS011;20617;49.476;10.986;2023-05-10T06:27:26;1.00;;;1.00;;
12878;SDS011;20617;49.476;10.986;2023-05-10T06:29:34;1.35;;;1.00;;
12878;SDS011;20617;49.476;10.986;2023-05-10T06:31:41;1.75;;;1.00;;
12878;SDS011;20617;49.476;10.986;2023-05-10T06:33:47;1.52;;;1.20;;
12878;SDS011;20617;49.476;10.986;2023-05-10T06:35:53;3.00;;;0.90;;
12878;SDS011;20617;49.476;10.986;2023-05-10T06:40:04;1.15;;;1.05;;
12878;SDS011;20617;49.476;10.986;2023-05-10T06:42:10;1.52;;;1.00;;
12878;SDS011;20617;49.476;10.986;2023-05-10T06:44:20;5.03;;;1.40;;
12878;SDS011;20617;49.476;10.986;2023-05-10T06:46:25;1.20;;;1.10;;
12878;SDS011;20617;49.476;10.986;2023-05-10T06:48:32;1.13;;;1.02;;
12878;SDS011;20617;49.476;10.986;2023-05-10T06:50:37;1.02;;;0.98;;
12878;SDS011;20617;49.476;10.986;2023-05-10T06:52:43;1.65;;;0.98;;
12878;SDS011;20617;49.476;10.986;2023-05-10T06:54:48;1.33;;;1.05;;
12878;SDS011;20617;49.476;10.986;2023-05-10T06:56:53;1.65;;;1.20;;
12878;SDS011;20617;49.476;10.986;2023-05-10T07:01:03;2.55;;;1.20;;
12878;SDS011;20617;49.476;10.986;2023-05-10T07:03:08;1.75;;;1.10;;
12878;SDS011;20617;49.476;10.986;2023-05-10T07:05:16;2.03;;;1.17;;
12878;SDS011;20617;49.476;10.986;2023-05-10T07:07:22;1.42;;;1.10;;
12878;SDS011;20617;49.476;10.986;2023-05-10T07:09:27;0.98;;;0.98;;
12878;SDS011;20617;49.476;10.986;2023-05-10T07:11:32;1.58;;;1.17;;
12878;SDS011;20617;49.476;10.986;2023-05-10T07:13:37;1.42;;;1.00;;
12878;SDS011;20617;49.476;10.986;2023-05-10T07:15:45;1.05;;;0.90;;
12878;SDS011;20617;49.476;10.986;2023-05-10T07:17:50;2.75;;;0.98;;
12878;SDS011;20617;49.476;10.986;2023-05-10T07:19:56;1.33;;;1.00;;
12878;SDS011;20617;49.476;10.986;2023-05-10T07:22:04;2.88;;;1.20;;
12878;SDS011;20617;49.476;10.986;2023-05-10T07:24:09;0.90;;;0.90;;
12878;SDS011;20617;49.476;10.986;2023-05-10T07:28:19;1.85;;;0.98;;
12878;SDS011;20617;49.476;10.986;2023-05-10T07:32:29;3.22;;;1.20;;
12878;SDS011;20617;49.476;10.986;2023-05-10T07:34:34;1.35;;;1.00;;
12878;SDS011;20617;49.476;10.986;2023-05-10T07:36:39;3.75;;;1.00;;
12878;SDS011;20617;49.476;10.986;2023-05-10T07:38:46;2.28;;;0.90;;
12878;SDS011;20617;49.476;10.986;2023-05-10T07:40:51;2.38;;;1.10;;
12878;SDS011;20617;49.476;10.986;2023-05-10T07:42:56;2.40;;;1.00;;
12878;SDS011;20617;49.476;10.986;2023-05-10T07:45:03;1.42;;;1.00;;
12878;SDS011;20617;49.476;10.986;2023-05-10T07:47:09;2.85;;;1.20;;
12878;SDS011;20617;49.476;10.986;2023-05-10T07:49:14;2.45;;;1.10;;
12878;SDS011;20617;49.476;10.986;2023-05-10T07:51:19;0.95;;;0.95;;
12878;SDS011;20617;49.476;10.986;2023-05-10T07:53:25;2.47;;;1.10;;
12878;SDS011;20617;49.476;10.986;2023-05-10T07:55:33;1.85;;;1.25;;
12878;SDS011;20617;49.476;10.986;2023-05-10T07:57:38;2.17;;;0.90;;
12878;SDS011;20617;49.476;10.986;2023-05-10T07:59:43;1.45;;;1.17;;
12878;SDS011;20617;49.476;10.986;2023-05-10T08:01:49;1.98;;;1.05;;
12878;SDS011;20617;49.476;10.986;2023-05-10T08:05:59;1.50;;;1.10;;
12878;SDS011;20617;49.476;10.986;2023-05-10T08:08:05;4.50;;;2.03;;
12878;SDS011;20617;49.476;10.986;2023-05-10T08:10:10;2.10;;;1.10;;
12878;SDS011;20617;49.476;10.986;2023-05-10T08:12:18;1.13;;;1.02;;
12878;SDS011;20617;49.476;10.986;2023-05-10T08:14:23;1.77;;;1.40;;
12878;SDS011;20617;49.476;10.986;2023-05-10T08:16:28;2.55;;;1.55;;
12878;SDS011;20617;49.476;10.986;2023-05-10T08:18:34;1.33;;;1.23;;
12878;SDS011;20617;49.476;10.986;2023-05-10T08:22:44;1.30;;;1.20;;
12878;SDS011;20617;49.476;10.986;2023-05-10T08:24:52;2.40;;;1.35;;
12878;SDS011;20617;49.476;10.986;2023-05-10T08:26:57;1.67;;;1.27;;
12878;SDS011;20617;49.476;10.986;2023-05-10T08:29:05;4.45;;;1.30;;
12878;SDS011;20617;49.476;10.986;2023-05-10T08:31:10;2.58;;;1.30;;
12878;SDS011;20617;49.476;10.986;2023-05-10T08:33:15;1.58;;;1.48;;
12878;SDS011;20617;49.476;10.986;2023-05-10T08:35:22;1.83;;;1.35;;
12878;SDS011;20617;49.476;10.986;2023-05-10T08:39:34;4.20;;;1.30;;
12878;SDS011;20617;49.476;10.986;2023-05-10T08:41:40;8.40;;;1.58;;
12878;SDS011;20617;49.476;10.986;2023-05-10T08:43:49;1.77;;;1.08;;
12878;SDS011;20617;49.476;10.986;2023-05-10T08:45:57;2.58;;;1.00;;
12878;SDS011;20617;49.476;10.986;2023-05-10T08:48:05;1.38;;;1.27;;
12878;SDS011;20617;49.476;10.986;2023-05-10T08:50:12;4.22;;;1.35;;
12878;SDS011;20617;49.476;10.986;2023-05-10T08:52:19;3.60;;;1.48;;
12878;SDS011;20617;49.476;10.986;2023-05-10T08:54:25;2.60;;;1.48;;
12878;SDS011;20617;49.476;10.986;2023-05-10T08:56:31;4.13;;;1.70;;
12878;SDS011;20617;49.476;10.986;2023-05-10T08:58:39;1.95;;;1.40;;
12878;SDS011;20617;49.476;10.986;2023-05-10T09:00:44;1.55;;;1.30;;
12878;SDS011;20617;49.476;10.986;2023-05-10T09:02:53;2.30;;;1.27;;
12878;SDS011;20617;49.476;10.986;2023-05-10T09:04:58;5.60;;;1.60;;
12878;SDS011;20617;49.476;10.986;2023-05-10T09:07:04;9.40;;;2.00;;
12878;SDS011;20617;49.476;10.986;2023-05-10T09:09:10;5.47;;;2.35;;
12878;SDS011;20617;49.476;10.986;2023-05-10T09:11:16;11.38;;;2.38;;
12878;SDS011;20617;49.476;10.986;2023-05-10T09:13:22;7.45;;;2.00;;
12878;SDS011;20617;49.476;10.986;2023-05-10T09:15:28;10.90;;;2.55;;
12878;SDS011;20617;49.476;10.986;2023-05-10T09:17:34;9.15;;;2.42;;
12878;SDS011;20617;49.476;10.986;2023-05-10T09:19:43;4.82;;;2.20;;
12878;SDS011;20617;49.476;10.986;2023-05-10T09:21:49;4.72;;;2.20;;
12878;SDS011;20617;49.476;10.986;2023-05-10T09:23:54;1.88;;;1.50;;
12878;SDS011;20617;49.476;10.986;2023-05-10T09:26:02;2.72;;;1.85;;
12878;SDS011;20617;49.476;10.986;2023-05-10T09:28:08;3.92;;;1.70;;
12878;SDS011;20617;49.476;10.986;2023-05-10T09:30:15;4.03;;;1.85;;
12878;SDS011;20617;49.476;10.986;2023-05-10T09:32:20;1.98;;;1.65;;
12878;SDS011;20617;49.476;10.986;2023-05-10T09:34:28;3.47;;;1.65;;
12878;SDS011;20617;49.476;10.986;2023-05-10T09:36:38;2.97;;;1.67;;
12878;SDS011;20617;49.476;10.986;2023-05-10T09:38:58;3.85;;;1.90;;
12878;SDS011;20617;49.476;10.986;2023-05-10T09:41:03;2.45;;;1.30;;
12878;SDS011;20617;49.476;10.986;2023-05-10T09:43:08;5.05;;;1.58;;
12878;SDS011;20617;49.476;10.986;2023-05-10T09:47:18;1.77;;;1.30;;
12878;SDS011;20617;49.476;10.986;2023-05-10T09:49:23;1.88;;;1.50;;
12878;SDS011;20617;49.476;10.986;2023-05-10T09:51:28;3.38;;;1.50;;
12878;SDS011;20617;49.476;10.986;2023-05-10T09:53:39;2.25;;;1.10;;
12878;SDS011;20617;49.476;10.986;2023-05-10T09:55:45;3.35;;;1.45;;
12878;SDS011;20617;49.476;10.986;2023-05-10T09:57:58;2.70;;;1.45;;
12878;SDS011;20617;49.476;10.986;2023-05-10T10:00:05;2.85;;;1.10;;
12878;SDS011;20617;49.476;10.986;2023-05-10T10:02:14;3.13;;;1.30;;
12878;SDS011;20617;49.476;10.986;2023-05-10T10:04:19;3.28;;;1.30;;
12878;SDS011;20617;49.476;10.986;2023-05-10T10:06:25;1.48;;;1.10;;
12878;SDS011;20617;49.476;10.986;2023-05-10T10:08:31;4.90;;;1.30;;
12878;SDS011;20617;49.476;10.986;2023-05-10T10:12:47;3.40;;;1.10;;
12878;SDS011;20617;49.476;10.986;2023-05-10T10:14:52;2.03;;;0.80;;
12878;SDS011;20617;49.476;10.986;2023-05-10T10:16:58;1.65;;;0.90;;
12878;SDS011;20617;49.476;10.986;2023-05-10T10:19:09;1.67;;;1.00;;
12878;SDS011;20617;49.476;10.986;2023-05-10T10:21:14;2.75;;;0.80;;
12878;SDS011;20617;49.476;10.986;2023-05-10T10:23:22;2.22;;;1.20;;
12878;SDS011;20617;49.476;10.986;2023-05-10T10:25:27;3.25;;;1.30;;
12878;SDS011;20617;49.476;10.986;2023-05-10T10:27:38;1.95;;;1.20;;
12878;SDS011;20617;49.476;10.986;2023-05-10T10:29:51;1.40;;;0.93;;
12878;SDS011;20617;49.476;10.986;2023-05-10T10:32:06;2.58;;;1.23;;
12878;SDS011;20617;49.476;10.986;2023-05-10T10:34:20;1.55;;;0.98;;
12878;SDS011;20617;49.476;10.986;2023-05-10T10:36:31;3.33;;;1.30;;
12878;SDS011;20617;49.476;10.986;2023-05-10T10:41:09;3.85;;;1.20;;
12878;SDS011;20617;49.476;10.986;2023-05-10T10:43:34;3.00;;;1.05;;
12878;SDS011;20617;49.476;10.986;2023-05-10T10:45:39;1.85;;;1.25;;
12878;SDS011;20617;49.476;10.986;2023-05-10T10:49:50;2.88;;;1.10;;
12878;SDS011;20617;49.476;10.986;2023-05-10T10:52:13;1.20;;;1.10;;
12878;SDS011;20617;49.476;10.986;2023-05-10T10:56:40;2.17;;;0.90;;
12878;SDS011;20617;49.476;10.986;2023-05-10T10:58:51;2.53;;;1.40;;
12878;SDS011;20617;49.476;10.986;2023-05-10T11:03:20;1.67;;;1.15;;
12878;SDS011;20617;49.476;10.986;2023-05-10T11:07:53;2.30;;;1.38;;
12878;SDS011;20617;49.476;10.986;2023-05-10T11:10:03;2.92;;;1.10;;
12878;SDS011;20617;49.476;10.986;2023-05-10T11:12:08;1.85;;;1.20;;
12878;SDS011;20617;49.476;10.986;2023-05-10T11:16:24;3.55;;;1.63;;
12878;SDS011;20617;49.476;10.986;2023-05-10T11:18:30;4.63;;;1.30;;
12878;SDS011;20617;49.476;10.986;2023-05-10T11:20:38;6.55;;;1.63;;
12878;SDS011;20617;49.476;10.986;2023-05-10T11:22:53;2.38;;;1.23;;
12878;SDS011;20617;49.476;10.986;2023-05-10T11:24:58;4.70;;;1.55;;
12878;SDS011;20617;49.476;10.986;2023-05-10T11:27:04;6.03;;;1.50;;
12878;SDS011;20617;49.476;10.986;2023-05-10T11:29:10;2.15;;;0.98;;
12878;SDS011;20617;49.476;10.986;2023-05-10T11:31:19;2.20;;;1.30;;
12878;SDS011;20617;49.476;10.986;2023-05-10T11:33:25;2.15;;;1.35;;
12878;SDS011;20617;49.476;10.986;2023-05-10T11:35:29;4.20;;;1.60;;
12878;SDS011;20617;49.476;10.986;2023-05-10T11:37:34;13.93;;;2.10;;
12878;SDS011;20617;49.476;10.986;2023-05-10T11:39:45;2.08;;;1.20;;
12878;SDS011;20617;49.476;10.986;2023-05-10T11:41:50;13.68;;;2.13;;
12878;SDS011;20617;49.476;10.986;2023-05-10T11:43:56;1.77;;;1.15;;
12878;SDS011;20617;49.476;10.986;2023-05-10T11:46:02;2.25;;;1.25;;
12878;SDS011;20617;49.476;10.986;2023-05-10T11:48:09;4.32;;;1.40;;
12878;SDS011;20617;49.476;10.986;2023-05-10T11:50:15;3.75;;;1.15;;
12878;SDS011;20617;49.476;10.986;2023-05-10T11:52:20;3.58;;;1.45;;
12878;SDS011;20617;49.476;10.986;2023-05-10T11:54:25;2.28;;;1.33;;
12878;SDS011;20617;49.476;10.986;2023-05-10T11:56:31;3.67;;;1.35;;
12878;SDS011;20617;49.476;10.986;2023-05-10T11:58:37;1.85;;;1.40;;
12878;SDS011;20617;49.476;10.986;2023-05-10T12:00:44;1.88;;;1.17;;
12878;SDS011;20617;49.476;10.986;2023-05-10T12:02:49;1.98;;;1.20;;
12878;SDS011;20617;49.476;10.986;2023-05-10T12:07:02;2.58;;;1.20;;
12878;SDS011;20617;49.476;10.986;2023-05-10T12:11:12;2.35;;;0.90;;
12878;SDS011;20617;49.476;10.986;2023-05-10T12:13:21;3.05;;;1.40;;
12878;SDS011;20617;49.476;10.986;2023-05-10T12:15:26;7.10;;;2.05;;
12878;SDS011;20617;49.476;10.986;2023-05-10T12:17:32;5.28;;;1.67;;
12878;SDS011;20617;49.476;10.986;2023-05-10T12:19:37;3.08;;;1.10;;
12878;SDS011;20617;49.476;10.986;2023-05-10T12:21:48;3.90;;;1.17;;
12878;SDS011;20617;49.476;10.986;2023-05-10T12:23:54;3.50;;;1.23;;
12878;SDS011;20617;49.476;10.986;2023-05-10T12:26:03;1.80;;;1.00;;
12878;SDS011;20617;49.476;10.986;2023-05-10T12:28:08;4.28;;;1.10;;
12878;SDS011;20617;49.476;10.986;2023-05-10T12:30:17;1.45;;;0.90;;
12878;SDS011;20617;49.476;10.986;2023-05-10T12:32:36;0.98;;;0.90;;
12878;SDS011;20617;49.476;10.986;2023-05-10T12:34:42;2.08;;;0.85;;
12878;SDS011;20617;49.476;10.986;2023-05-10T12:39:01;1.75;;;0.93;;
12878;SDS011;20617;49.476;10.986;2023-05-10T12:41:08;3.25;;;1.00;;
12878;SDS011;20617;49.476;10.986;2023-05-10T12:43:14;0.88;;;0.77;;
12878;SDS011;20617;49.476;10.986;2023-05-10T12:45:19;1.65;;;1.00;;
12878;SDS011;20617;49.476;10.986;2023-05-10T12:47:24;2.70;;;0.77;;
12878;SDS011;20617;49.476;10.986;2023-05-10T12:49:29;4.47;;;0.82;;
12878;SDS011;20617;49.476;10.986;2023-05-10T12:51:34;1.58;;;0.90;;
12878;SDS011;20617;49.476;10.986;2023-05-10T12:53:41;1.95;;;0.90;;
12878;SDS011;20617;49.476;10.986;2023-05-10T12:55:50;2.20;;;1.10;;
12878;SDS011;20617;49.476;10.986;2023-05-10T12:57:55;2.33;;;0.80;;
12878;SDS011;20617;49.476;10.986;2023-05-10T13:00:00;3.83;;;1.15;;
12878;SDS011;20617;49.476;10.986;2023-05-10T13:02:06;5.90;;;1.92;;
12878;SDS011;20617;49.476;10.986;2023-05-10T13:04:11;3.60;;;1.50;;
12878;SDS011;20617;49.476;10.986;2023-05-10T13:06:16;1.92;;;1.20;;
12878;SDS011;20617;49.476;10.986;2023-05-10T13:08:22;5.50;;;1.60;;
12878;SDS011;20617;49.476;10.986;2023-05-10T13:10:30;6.10;;;1.63;;
12878;SDS011;20617;49.476;10.986;2023-05-10T13:12:39;6.68;;;1.88;;
12878;SDS011;20617;49.476;10.986;2023-05-10T13:14:44;3.35;;;1.35;;
12878;SDS011;20617;49.476;10.986;2023-05-10T13:16:49;2.13;;;1.35;;
12878;SDS011;20617;49.476;10.986;2023-05-10T13:18:54;3.05;;;1.65;;
12878;SDS011;20617;49.476;10.986;2023-05-10T13:21:01;3.58;;;1.50;;
12878;SDS011;20617;49.476;10.986;2023-05-10T13:23:07;2.13;;;1.40;;
12878;SDS011;20617;49.476;10.986;2023-05-10T13:25:12;2.72;;;1.35;;
12878;SDS011;20617;49.476;10.986;2023-05-10T13:27:20;3.20;;;1.30;;
12878;SDS011;20617;49.476;10.986;2023-05-10T13:29:25;2.08;;;1.27;;
12878;SDS011;20617;49.476;10.986;2023-05-10T13:33:35;4.55;;;1.30;;
12878;SDS011;20617;49.476;10.986;2023-05-10T13:35:42;3.53;;;2.53;;
12878;SDS011;20617;49.476;10.986;2023-05-10T13:37:46;2.17;;;1.83;;
12878;SDS011;20617;49.476;10.986;2023-05-10T13:39:51;3.50;;;1.02;;
12878;SDS011;20617;49.476;10.986;2023-05-10T13:41:56;1.63;;;1.30;;
12878;SDS011;20617;49.476;10.986;2023-05-10T13:44:04;1.00;;;0.80;;